createdAt,value
2022-10-04T00:00:41.332Z,96882.13
2022-10-04T00:03:21.922Z,96885.59
2022-10-04T00:05:58.460Z,96891.22
2022-10-04T00:08:43.423Z,96897.16
2022-10-04T00:11:23.669Z,96894.03
2022-10-04T00:14:00.161Z,96902.03
2022-10-04T00:16:35.557Z,96903.72
2022-10-04T00:19:40.214Z,96901.69
2022-10-04T00:22:17.377Z,96901.19
2022-10-04T00:25:21.276Z,96895.63
2022-10-04T00:28:18.235Z,96902.06
2022-10-04T00:31:16.859Z,96904.56
2022-10-04T00:33:52.055Z,96908.91
2022-10-04T00:36:48.101Z,96900.91
2022-10-04T00:39:40.558Z,96906.09
2022-10-04T00:42:32.779Z,96896.78
2022-10-04T00:45:14.242Z,96897.41
2022-10-04T00:48:12.614Z,96895.81
2022-10-04T00:50:51.329Z,96897.22
2022-10-04T00:53:41.048Z,96891.41
2022-10-04T00:56:19.308Z,96886.16
2022-10-04T00:59:26.140Z,96896.84
2022-10-04T01:02:05.018Z,96899.03
2022-10-04T01:04:46.960Z,96892.44
2022-10-04T01:07:22.227Z,96889.25
2022-10-04T01:09:58.682Z,96886.00
2022-10-04T01:12:42.054Z,96885.72
2022-10-04T01:15:24.543Z,96880.66
2022-10-04T01:18:14.779Z,96878.16
2022-10-04T01:20:54.640Z,96880.53
2022-10-04T01:23:42.828Z,96877.78
2022-10-04T01:26:41.540Z,96875.47
2022-10-04T01:29:17.603Z,96865.44
2022-10-04T01:31:52.047Z,96869.59
2022-10-04T01:34:26.764Z,96867.28
2022-10-04T01:37:01.360Z,96864.03
2022-10-04T01:39:35.606Z,96864.88
2022-10-04T01:42:12.012Z,96854.72
2022-10-04T01:44:51.604Z,96850.69
2022-10-04T01:47:31.385Z,96844.44
2022-10-04T01:50:13.614Z,96846.84
2022-10-04T01:52:53.094Z,96850.31
2022-10-04T01:55:30.834Z,96850.03
2022-10-04T01:58:11.039Z,96858.06
2022-10-04T02:00:49.181Z,96846.91
2022-10-04T02:03:28.942Z,96849.13
2022-10-04T02:06:06.284Z,96850.22
2022-10-04T02:08:41.968Z,96842.38
2022-10-04T02:11:21.937Z,96842.53
2022-10-04T02:13:56.446Z,96839.22
2022-10-04T02:16:29.839Z,96837.34
2022-10-04T02:19:05.123Z,96841.75
2022-10-04T02:21:38.689Z,96836.41
2022-10-04T02:24:12.628Z,96839.88
2022-10-04T02:26:51.790Z,96843.00
2022-10-04T02:29:24.667Z,96839.09
2022-10-04T02:32:15.607Z,96841.44
2022-10-04T02:34:49.375Z,96835.94
2022-10-04T02:37:24.044Z,96832.78
2022-10-04T02:40:04.347Z,96841.91
2022-10-04T02:42:45.596Z,96838.78
2022-10-04T02:45:23.270Z,96838.91
2022-10-04T02:48:01.369Z,96836.25
2022-10-04T02:50:37.551Z,96842.19
2022-10-04T02:53:15.649Z,96828.38
2022-10-04T02:55:49.525Z,96830.56
2022-10-04T02:58:25.984Z,96826.03
2022-10-04T03:01:01.044Z,96826.81
2022-10-04T03:03:37.020Z,96829.16
2022-10-04T03:06:14.152Z,96830.09
2022-10-04T03:08:51.477Z,96823.66
2022-10-04T03:11:28.813Z,96824.28
2022-10-04T03:14:06.164Z,96829.00
2022-10-04T03:16:41.884Z,96824.63
2022-10-04T03:19:18.165Z,96827.13
2022-10-04T03:21:54.329Z,96816.59
2022-10-04T03:24:32.088Z,96826.81
2022-10-04T03:27:07.980Z,96823.19
2022-10-04T03:29:44.324Z,96831.06
2022-10-04T03:32:19.586Z,96823.53
2022-10-04T03:34:57.123Z,96824.16
2022-10-04T03:37:33.392Z,96820.84
2022-10-04T03:40:10.827Z,96818.78
2022-10-04T03:42:46.055Z,96825.53
2022-10-04T03:45:22.483Z,96821.13
2022-10-04T03:48:00.322Z,96822.06
2022-10-04T03:50:36.592Z,96818.44
2022-10-04T03:53:13.865Z,96820.47
2022-10-04T03:55:47.212Z,96815.25
2022-10-04T03:58:21.892Z,96820.44
2022-10-04T04:01:10.916Z,96820.28
2022-10-04T04:03:55.329Z,96826.88
2022-10-04T04:06:36.150Z,96831.91
2022-10-04T04:09:10.611Z,96836.63
2022-10-04T04:11:45.802Z,96836.00
2022-10-04T04:14:25.909Z,96829.97
2022-10-04T04:17:32.026Z,96828.56
2022-10-04T04:20:14.606Z,96822.59
2022-10-04T04:22:58.312Z,96829.47
2022-10-04T04:25:35.988Z,96827.28
2022-10-04T04:28:22.040Z,96819.72
2022-10-04T04:30:59.637Z,96829.63
2022-10-04T04:33:46.768Z,96821.28
2022-10-04T04:36:19.657Z,96815.94
2022-10-04T04:39:09.791Z,96807.44
2022-10-04T04:41:45.834Z,96812.00
2022-10-04T04:44:22.504Z,96816.56
2022-10-04T04:47:00.733Z,96825.06
2022-10-04T04:49:39.520Z,96830.91
2022-10-04T04:52:18.310Z,96822.88
2022-10-04T04:54:51.213Z,96829.78
2022-10-04T04:57:24.427Z,96831.38
2022-10-04T05:00:01.273Z,96825.34
2022-10-04T05:02:36.791Z,96836.53
2022-10-04T05:05:23.218Z,96840.78
2022-10-04T05:08:14.478Z,96830.19
2022-10-04T05:10:52.385Z,96829.88
2022-10-04T05:13:32.839Z,96838.84
2022-10-04T05:16:06.408Z,96842.31
2022-10-04T05:18:39.402Z,96837.41
2022-10-04T05:21:21.340Z,96845.59
2022-10-04T05:23:56.164Z,96844.50
2022-10-04T05:26:32.046Z,96837.84
2022-10-04T05:29:11.886Z,96843.66
2022-10-04T05:31:50.890Z,96840.66
2022-10-04T05:34:27.206Z,96835.31
2022-10-04T05:37:30.195Z,96834.66
2022-10-04T05:40:17.972Z,96837.78
2022-10-04T05:42:54.400Z,96837.47
2022-10-04T05:45:29.776Z,96841.72
2022-10-04T05:48:08.184Z,96838.72
2022-10-04T05:50:43.425Z,96838.41
2022-10-04T05:53:27.733Z,96836.63
2022-10-04T05:56:17.424Z,96831.75
2022-10-04T05:59:05.399Z,96835.34
2022-10-04T06:01:48.420Z,96827.75
2022-10-04T06:04:35.357Z,96843.53
2022-10-04T06:07:20.258Z,96829.81
2022-10-04T06:10:06.798Z,96845.56
2022-10-04T06:12:53.729Z,96853.59
2022-10-04T06:15:51.621Z,96844.78
2022-10-04T06:18:44.124Z,96838.34
2022-10-04T06:21:22.610Z,96847.78
2022-10-04T06:24:03.206Z,96853.31
2022-10-04T06:26:41.353Z,96862.91
2022-10-04T06:29:21.554Z,96867.31
2022-10-04T06:32:21.423Z,96874.72
2022-10-04T06:35:09.496Z,96883.66
2022-10-04T06:38:15.482Z,96877.00
2022-10-04T06:41:16.834Z,96892.13
2022-10-04T06:44:05.436Z,96890.97
2022-10-04T06:46:48.986Z,96893.13
2022-10-04T06:49:43.991Z,96900.31
2022-10-04T06:53:01.436Z,96905.16
2022-10-04T06:56:05.733Z,96897.38
2022-10-04T06:58:55.529Z,96894.19
2022-10-04T07:01:30.955Z,96899.47
2022-10-04T07:04:23.870Z,96894.03
2022-10-04T07:07:34.963Z,96910.06
2022-10-04T07:10:25.365Z,96903.16
2022-10-04T07:13:10.661Z,96901.84
2022-10-04T07:15:50.125Z,96903.66
2022-10-04T07:18:28.714Z,96905.19
2022-10-04T07:21:08.465Z,96889.28
2022-10-04T07:23:47.714Z,96889.53
2022-10-04T07:26:30.487Z,96883.16
2022-10-04T07:29:22.419Z,96882.63
2022-10-04T07:32:05.704Z,96892.69
2022-10-04T07:34:45.496Z,96892.25
2022-10-04T07:37:21.148Z,96899.09
2022-10-04T07:40:01.089Z,96904.03
2022-10-04T07:42:46.760Z,96896.31
2022-10-04T07:45:25.820Z,96901.56
2022-10-04T07:48:06.461Z,96904.56
2022-10-04T07:50:45.979Z,96911.84
2022-10-04T07:53:25.746Z,96917.59
2022-10-04T07:56:03.597Z,96924.09
2022-10-04T07:58:47.665Z,96927.06
2022-10-04T08:01:31.553Z,96928.97
2022-10-04T08:04:17.267Z,96933.88
2022-10-04T08:06:59.926Z,96928.81
2022-10-04T08:09:50.774Z,96928.66
2022-10-04T08:12:29.098Z,96929.97
2022-10-04T08:15:26.567Z,96937.03
2022-10-04T08:18:06.978Z,96931.75
2022-10-04T08:20:48.039Z,96927.22
2022-10-04T08:23:50.277Z,96928.56
2022-10-04T08:26:49.213Z,96932.22
2022-10-04T08:29:42.981Z,96931.97
2022-10-04T08:32:28.357Z,96921.72
2022-10-04T08:35:23.410Z,96926.19
2022-10-04T08:38:14.692Z,96924.81
2022-10-04T08:41:19.148Z,96926.22
2022-10-04T08:44:24.562Z,96908.63
2022-10-04T08:47:30.837Z,96910.72
2022-10-04T08:50:46.585Z,96906.72
2022-10-04T08:53:53.808Z,96908.88
2022-10-04T08:56:48.388Z,96904.88
2022-10-04T08:59:51.785Z,96915.50
2022-10-04T09:03:09.382Z,96916.09
2022-10-04T09:05:55.250Z,96918.50
2022-10-04T09:09:07.205Z,96916.78
2022-10-04T09:12:01.405Z,96917.72
2022-10-04T09:15:02.116Z,96928.75
2022-10-04T09:17:44.967Z,96920.88
2022-10-04T09:20:38.324Z,96916.13
2022-10-04T09:23:40.261Z,96907.88
2022-10-04T09:26:22.113Z,96918.91
2022-10-04T09:29:15.598Z,96913.72
2022-10-04T09:32:22.597Z,96912.34
2022-10-04T09:35:14.985Z,96912.56
2022-10-04T09:38:38.988Z,96909.28
2022-10-04T09:41:38.094Z,96910.25
2022-10-04T09:44:40.353Z,96913.09
2022-10-04T09:47:38.056Z,96905.09
2022-10-04T09:50:37.400Z,96909.06
2022-10-04T09:53:35.489Z,96909.63
2022-10-04T09:56:31.460Z,96914.34
2022-10-04T09:59:27.245Z,96916.75
2022-10-04T10:02:31.846Z,96914.09
2022-10-04T10:05:24.151Z,96913.38
2022-10-04T10:08:09.270Z,96911.44
2022-10-04T10:11:09.756Z,96913.06
2022-10-04T10:14:15.987Z,96916.97
2022-10-04T10:17:03.539Z,96917.44
2022-10-04T10:20:16.745Z,96914.06
2022-10-04T10:23:26.780Z,96913.41
2022-10-04T10:26:30.303Z,96911.97
2022-10-04T10:29:24.005Z,96921.69
2022-10-04T10:32:12.368Z,96914.78
2022-10-04T10:35:20.779Z,96912.13
2022-10-04T10:38:07.972Z,96907.53
2022-10-04T10:40:53.172Z,96912.25
2022-10-04T10:43:42.209Z,96913.53
2022-10-04T10:46:29.043Z,96910.06
2022-10-04T10:49:27.388Z,96906.63
2022-10-04T10:52:48.916Z,96907.41
2022-10-04T10:55:33.234Z,96906.25
2022-10-04T10:58:27.370Z,96897.78
2022-10-04T11:01:16.770Z,96898.91
2022-10-04T11:04:34.895Z,96903.56
2022-10-04T11:07:43.338Z,96897.28
2022-10-04T11:11:05.393Z,96904.97
2022-10-04T11:14:13.886Z,96897.13
2022-10-04T11:17:20.890Z,96905.50
2022-10-04T11:20:30.012Z,96894.94
2022-10-04T11:23:33.501Z,96887.06
2022-10-04T11:26:39.115Z,96885.81
2022-10-04T11:29:24.345Z,96888.03
2022-10-04T11:32:32.789Z,96882.97
2022-10-04T11:35:59.371Z,96882.25
2022-10-04T11:38:49.137Z,96888.91
2022-10-04T11:41:36.748Z,96888.25
2022-10-04T11:44:53.248Z,96883.75
2022-10-04T11:47:43.218Z,96874.16
2022-10-04T11:50:30.207Z,96876.53
2022-10-04T11:53:34.416Z,96874.59
2022-10-04T11:56:21.603Z,96869.19
2022-10-04T11:59:27.607Z,96873.03
2022-10-04T12:02:26.932Z,96855.56
2022-10-04T12:05:24.607Z,96853.53
2022-10-04T12:08:10.387Z,96847.63
2022-10-04T12:10:46.608Z,96847.50
2022-10-04T12:13:45.759Z,96838.50
2022-10-04T12:16:48.358Z,96848.03
2022-10-04T12:19:52.650Z,96839.03
2022-10-04T12:22:49.207Z,96831.13
2022-10-04T12:25:58.389Z,96822.84
2022-10-04T12:29:05.917Z,96832.34
2022-10-04T12:31:45.423Z,96820.22
2022-10-04T12:34:27.953Z,96823.16
2022-10-04T12:37:16.527Z,96818.88
2022-10-04T12:40:08.691Z,96816.84
2022-10-04T12:42:49.193Z,96826.09
2022-10-04T12:45:39.306Z,96819.91
2022-10-04T12:48:34.307Z,96812.56
2022-10-04T12:51:21.536Z,96810.22
2022-10-04T12:54:05.278Z,96814.06
2022-10-04T12:56:48.266Z,96806.34
2022-10-04T12:59:40.228Z,96802.47
2022-10-04T13:02:25.207Z,96800.53
2022-10-04T13:05:11.709Z,96806.72
2022-10-04T13:07:58.411Z,96800.53
2022-10-04T13:10:45.708Z,96803.25
2022-10-04T13:14:17.500Z,96798.22
2022-10-04T13:19:57.258Z,96809.09
2022-10-04T13:22:57.039Z,96797.91
2022-10-04T13:26:03.760Z,96801.06
2022-10-04T13:28:47.853Z,96805.72
2022-10-04T13:31:32.934Z,96801.91
2022-10-04T13:34:19.864Z,96808.59
2022-10-04T13:37:05.033Z,96811.41
2022-10-04T13:39:55.822Z,96809.88
2022-10-04T13:43:00.261Z,96815.00
2022-10-04T13:45:45.543Z,96808.88
2022-10-04T13:48:31.051Z,96815.81
2022-10-04T13:51:24.427Z,96811.56
2022-10-04T13:54:29.322Z,96812.72
2022-10-04T13:57:18.376Z,96808.88
2022-10-04T13:59:56.410Z,96814.28
2022-10-04T14:02:49.852Z,96817.38
2022-10-04T14:06:06.601Z,96813.53
2022-10-04T14:09:19.718Z,96817.00
2022-10-04T14:12:09.206Z,96814.31
2022-10-04T14:15:11.268Z,96815.53
2022-10-04T14:18:02.521Z,96806.97
2022-10-04T14:21:02.276Z,96805.91
2022-10-04T14:24:06.067Z,96809.38
2022-10-04T14:27:20.529Z,96816.72
2022-10-04T14:30:08.224Z,96811.69
2022-10-04T14:33:16.573Z,96804.69
2022-10-04T14:35:55.980Z,96806.19
2022-10-04T14:38:44.426Z,96810.03
2022-10-04T14:42:06.996Z,96803.06
2022-10-04T14:45:07.621Z,96804.59
2022-10-04T14:48:19.021Z,96804.16
2022-10-04T14:51:12.886Z,96807.22
2022-10-04T14:53:55.983Z,96810.66
2022-10-04T14:56:52.310Z,96809.47
2022-10-04T14:59:43.004Z,96808.69
2022-10-04T15:02:49.919Z,96808.25
2022-10-04T15:05:41.238Z,96806.34
2022-10-04T15:08:41.890Z,96802.84
2022-10-04T15:11:19.163Z,96802.06
2022-10-04T15:13:55.728Z,96799.72
2022-10-04T15:16:38.500Z,96796.59
2022-10-04T15:19:26.376Z,96798.53
2022-10-04T15:22:09.093Z,96799.25
2022-10-04T15:24:49.052Z,96791.50
2022-10-04T15:27:39.344Z,96790.28
2022-10-04T15:30:21.794Z,96795.69
2022-10-04T15:33:22.700Z,96790.72
2022-10-04T15:36:15.721Z,96788.00
2022-10-04T15:38:57.274Z,96786.88
2022-10-04T15:41:46.623Z,96792.28
2022-10-04T15:44:44.105Z,96791.16
2022-10-04T15:47:25.498Z,96793.44
2022-10-04T15:50:26.126Z,96791.84
2022-10-04T15:53:28.789Z,96787.19
2022-10-04T15:56:11.891Z,96784.38
2022-10-04T15:59:00.597Z,96780.47
2022-10-04T16:01:51.083Z,96780.84
2022-10-04T16:04:42.882Z,96779.66
2022-10-04T16:07:40.347Z,96770.34
2022-10-04T16:10:21.910Z,96771.81
2022-10-04T16:13:18.641Z,96775.63
2022-10-04T16:16:26.721Z,96774.41
2022-10-04T16:19:11.030Z,96773.63
2022-10-04T16:21:53.613Z,96765.53
2022-10-04T16:24:40.941Z,96763.19
2022-10-04T16:27:42.326Z,96757.38
2022-10-04T16:30:28.699Z,96761.94
2022-10-04T16:33:29.077Z,96761.09
2022-10-04T16:36:10.081Z,96762.16
2022-10-04T16:39:02.394Z,96770.59
2022-10-04T16:41:40.711Z,96771.22
2022-10-04T16:44:32.056Z,96768.75
2022-10-04T16:47:22.368Z,96773.59
2022-10-04T16:49:57.340Z,96773.81
2022-10-04T16:52:48.155Z,96774.03
2022-10-04T16:55:37.988Z,96781.16
2022-10-04T16:58:50.237Z,96775.09
2022-10-04T17:01:34.077Z,96774.81
2022-10-04T17:04:29.669Z,96783.88
2022-10-04T17:07:15.078Z,96783.56
2022-10-04T17:09:49.839Z,96787.09
2022-10-04T17:12:29.312Z,96795.31
2022-10-04T17:15:41.321Z,96792.25
2022-10-04T17:18:21.254Z,96801.56
2022-10-04T17:21:01.447Z,96809.38
2022-10-04T17:24:00.240Z,96809.88
2022-10-04T17:26:52.867Z,96808.47
2022-10-04T17:29:46.605Z,96809.75
2022-10-04T17:32:25.871Z,96813.66
2022-10-04T17:35:14.541Z,96816.19
2022-10-04T17:37:56.725Z,96821.72
2022-10-04T17:40:42.892Z,96816.81
2022-10-04T17:43:24.268Z,96824.25
2022-10-04T17:46:16.869Z,96829.78
2022-10-04T17:49:14.057Z,96838.75
2022-10-04T17:52:07.385Z,96834.50
2022-10-04T17:55:05.217Z,96831.94
2022-10-04T17:57:43.894Z,96833.22
2022-10-04T18:00:18.723Z,96841.81
2022-10-04T18:03:09.018Z,96837.03
2022-10-04T18:05:50.624Z,96846.78
2022-10-04T18:08:42.672Z,96847.03
2022-10-04T18:11:22.034Z,96856.75
2022-10-04T18:14:02.511Z,96857.09
2022-10-04T18:16:50.147Z,96858.75
2022-10-04T18:19:41.208Z,96853.16
2022-10-04T18:22:16.434Z,96846.75
2022-10-04T18:25:03.647Z,96832.00
2022-10-04T18:27:52.426Z,96835.66
2022-10-04T18:30:26.667Z,96828.50
2022-10-04T18:33:00.028Z,96834.56
2022-10-04T18:35:35.326Z,96824.31
2022-10-04T18:38:27.365Z,96819.28
2022-10-04T18:41:03.244Z,96825.19
2022-10-04T18:43:50.902Z,96819.81
2022-10-04T18:46:25.479Z,96810.09
2022-10-04T18:49:04.806Z,96816.88
2022-10-04T18:51:46.540Z,96819.81
2022-10-04T18:54:29.141Z,96819.66
2022-10-04T18:57:13.039Z,96823.38
2022-10-04T19:00:16.610Z,96822.44
2022-10-04T19:03:01.767Z,96834.97
2022-10-04T19:05:44.808Z,96840.66
2022-10-04T19:08:33.592Z,96842.09
2022-10-04T19:11:10.745Z,96852.72
2022-10-04T19:13:56.257Z,96846.13
2022-10-04T19:16:43.245Z,96850.56
2022-10-04T19:19:39.314Z,96846.31
2022-10-04T19:22:27.809Z,96851.56
2022-10-04T19:25:36.489Z,96845.25
2022-10-04T19:28:19.740Z,96852.09
2022-10-04T19:31:03.641Z,96855.44
2022-10-04T19:33:52.149Z,96857.66
2022-10-04T19:36:49.604Z,96861.31
2022-10-04T19:39:37.621Z,96866.22
2022-10-04T19:42:14.383Z,96869.13
2022-10-04T19:44:58.283Z,96876.38
2022-10-04T19:47:41.594Z,96878.91
2022-10-04T19:50:33.381Z,96875.31
2022-10-04T19:53:16.126Z,96884.81
2022-10-04T19:55:55.887Z,96884.66
2022-10-04T19:58:36.642Z,96884.53
2022-10-04T20:01:12.495Z,96888.19
2022-10-04T20:03:45.832Z,96887.28
2022-10-04T20:06:26.154Z,96894.06
2022-10-04T20:09:20.139Z,96888.56
2022-10-04T20:11:54.130Z,96885.28
2022-10-04T20:15:14.882Z,96886.41
2022-10-04T20:17:49.399Z,96891.13
2022-10-04T20:20:55.590Z,96887.19
2022-10-04T20:23:56.690Z,96892.75
2022-10-04T20:27:06.191Z,96892.94
2022-10-04T20:30:01.841Z,96900.06
2022-10-04T20:32:57.197Z,96901.00
2022-10-04T20:36:14.267Z,96897.41
2022-10-04T20:38:53.958Z,96892.22
2022-10-04T20:42:22.661Z,96893.97
2022-10-04T20:44:59.005Z,96895.25
2022-10-04T20:47:46.384Z,96898.28
2022-10-04T20:50:29.921Z,96895.13
2022-10-04T20:53:06.855Z,96902.69
2022-10-04T20:55:41.482Z,96909.94
2022-10-04T20:58:28.804Z,96908.03
2022-10-04T21:01:14.011Z,96903.78
2022-10-04T21:03:46.995Z,96908.03
2022-10-04T21:06:19.811Z,96914.19
2022-10-04T21:08:54.393Z,96915.75
2022-10-04T21:11:44.789Z,96917.66
2022-10-04T21:14:24.087Z,96921.91
2022-10-04T21:17:02.351Z,96915.59
2022-10-04T21:19:53.755Z,96920.66
2022-10-04T21:22:40.013Z,96925.53
2022-10-04T21:25:39.785Z,96925.84
2022-10-04T21:28:36.336Z,96921.47
2022-10-04T21:31:09.258Z,96923.97
2022-10-04T21:33:42.765Z,96926.53
2022-10-04T21:36:16.082Z,96924.16
2022-10-04T21:38:48.974Z,96927.94
2022-10-04T21:41:22.004Z,96926.69
2022-10-04T21:43:56.260Z,96929.34
2022-10-04T21:46:29.212Z,96939.63
2022-10-04T21:49:02.149Z,96924.66
2022-10-04T21:51:36.332Z,96937.56
2022-10-04T21:54:09.166Z,96937.88
2022-10-04T21:56:42.019Z,96939.28
2022-10-04T21:59:16.233Z,96933.81
2022-10-04T22:01:49.277Z,96938.84
2022-10-04T22:04:22.088Z,96937.59
2022-10-04T22:06:54.881Z,96935.88
2022-10-04T22:09:28.074Z,96938.69
2022-10-04T22:12:01.163Z,96939.81
2022-10-04T22:14:35.575Z,96944.22
2022-10-04T22:17:08.629Z,96939.50
2022-10-04T22:19:41.678Z,96948.63
2022-10-04T22:22:16.155Z,96950.81
2022-10-04T22:24:49.409Z,96945.03
2022-10-04T22:27:22.889Z,96947.53
2022-10-04T22:29:58.241Z,96945.16
2022-10-04T22:32:31.499Z,96950.03
2022-10-04T22:35:13.842Z,96948.47
2022-10-04T22:37:47.032Z,96944.06
2022-10-04T22:40:21.897Z,96938.56
2022-10-04T22:42:56.892Z,96941.56
2022-10-04T22:45:33.480Z,96936.03
2022-10-04T22:48:13.197Z,96940.13
2022-10-04T22:50:46.148Z,96943.72
2022-10-04T22:53:22.576Z,96942.13
2022-10-04T22:55:56.277Z,96942.75
2022-10-04T22:58:29.146Z,96938.53
2022-10-04T23:01:03.504Z,96951.41
2022-10-04T23:03:38.244Z,96944.00
2022-10-04T23:06:14.249Z,96940.53
2022-10-04T23:08:47.151Z,96943.53
2022-10-04T23:11:19.959Z,96937.72
2022-10-04T23:13:52.940Z,96937.25
2022-10-04T23:16:27.200Z,96933.00
2022-10-04T23:19:03.128Z,96937.84
2022-10-04T23:21:38.886Z,96935.19
2022-10-04T23:24:17.583Z,96928.25
2022-10-04T23:26:55.770Z,96936.28
2022-10-04T23:29:32.971Z,96933.91
2022-10-04T23:32:11.932Z,96940.38
2022-10-04T23:34:47.442Z,96939.41
2022-10-04T23:37:24.171Z,96933.59
2022-10-04T23:39:57.057Z,96940.38
2022-10-04T23:42:32.396Z,96940.97
2022-10-04T23:45:17.344Z,96940.97
2022-10-04T23:47:54.367Z,96932.00
2022-10-04T23:50:30.677Z,96923.81
2022-10-04T23:53:06.555Z,96929.97
2022-10-04T23:55:41.710Z,96917.50
2022-10-04T23:58:17.085Z,96919.69
